Chatham, MS (38731)

7:40 PM CDT on July 04, 2015 (GMT -0500)
Lake Hall Rd near Fawnwood Comm Ctr | | Change Station
CLOSE
Current Station
Personal Weather Station
Location: Lake Village, AR
Elevation: 118 ft
Nearby Weather Stations
Active Advisory: Flood Warning

Elev 118 ft 33.28 °N, 91.24 °W | Updated 1 minute ago

Partly Cloudy
Partly Cloudy
76.5 °F
Feels Like 78 °F
N
0.0
Wind Variable Wind from South
Gusts 1.0 mph

Today
High -- | Low -- °F
--% Chance of Precip.
Yesterday
High -- | Low -- °F
Precip. -- in
6:00 AM 8:16 PM
Waning Gibbous, 89% visible
Pressure 30.00 in
Visibility 10.0 miles
Clouds Clear
Heat Index 78 °F
Dew Point 71 °F
Humidity 84%
Rainfall 1.56 in
Snow Depth Not available.
UV 1 out of 12
Pollen .50 out of 12
Air Quality Not available.
Flu Activity Not available.
METAR KGLH 042353Z AUTO 17007KT 10SM CLR 25/21 A2998 RMK AO2 SLP157 6//// T02500211 10256 20228

More Conditions Fewer Conditions

Pressure 30.00 in
Visibility 10.0 miles
Clouds Clear
Heat Index 78 °F
Dew Point 71 °F
Humidity 84%
Rainfall 1.56 in
Snow Depth Not available.
UV 1 out of 12
Pollen .50 out of 12
Air Quality Not available.
Flu Activity Not available.
METAR KGLH 042353Z AUTO 17007KT 10SM CLR 25/21 A2998 RMK AO2 SLP157 6//// T02500211 10256 20228

More Conditions Fewer Conditions

10-Day Weather Forecast

×

Almanac

Astronomy

Jul. 04, 2015 Rise Set
Actual Time
Civil Twilight
Nautical Twilight
Astronomical Twilight
Moon
Length of Visible Light
Length of Day
Tomorrow will be .
, % of the Moon is Illuminated

Today's Extremes

State Highs State Lows

Community

WunderPhotos

Upload Photos

1,835,125 photos uploaded!

WunderBlogs® & News

Nearby

Air Quality

  Air Quality AQ Index Pollutant
Not available.

Snow Depth

Station Depth Elevation

Earthquake Activity

City Distance Mag. Time & Date
Minimum magnitude displayed is 2.5.

Coastal Water Temperatures

Place Temperature

Stations

Nearby Weather Stations

Station Location Temp. Windchill Dew Point Humidity Wind Precip. Elev Updated Type
                   
Flood Warning
Statement as of 11:53 AM CDT on July 04, 2015


The Flood Warning continues for
the Mississippi River near Greenville
* from late Sunday night until further notice.
* At 11:00 am Saturday the stage was 47.1 feet.
* Minor flooding is forecast.
* Flood stage is 48.0 feet.
* Forecast... the river will rise above flood stage by Monday July 06
and will continue to rise to near 49.0 feet by Wednesday July 15.
* Impact... at 48.0 feet... water begins to cover the dirt Road leading
to the farmers grain terminal facility which is north of the
Greenville bridge.



              Flood observed forecast 7 am crest
location stg stg day time sun Mon Tue crest time date

Lower Mississippi River
Greenville 48 47.1 Sat 11 am 47.8 48.1 48.3 49.0 07 am 07/15




Lat... Lon 3277 9123 3340 9128 3340 9105 3283 9101
      3277 9101 3278 9111